Time;durP1;ratioP1;P1;durP2;ratioP2;P2;SDS_P1;SDS_P2;PMS_P1;PMS_P2;Temp;Humidity;BMP_temperature;BMP_pressure;BME280_temperature;BME280_humidity;BME280_pressure;Samples;Min_cycle;Max_cycle;Signal;HPM_P1;HPM_P2
2023/11/26 00:02:16;;;;;;;15.48;7.43;;;;;;;;;;5166371;28;20112;-58
2023/11/26 00:04:47;;;;;;;17.65;7.32;;;;;;;;;;5182627;28;20044;-58
2023/11/26 00:07:18;;;;;;;16.92;7.00;;;;;;;;;;5167012;28;20132;-59
2023/11/26 00:09:50;;;;;;;14.73;7.22;;;;;;;;;;5166957;28;20503;-58
2023/11/26 00:12:21;;;;;;;16.35;7.28;;;;;;;;;;5182730;28;20057;-58
2023/11/26 00:14:52;;;;;;;17.60;7.07;;;;;;;;;;5166916;28;20042;-58
2023/11/26 00:17:24;;;;;;;14.60;7.00;;;;;;;;;;5183282;28;20042;-58
2023/11/26 00:19:55;;;;;;;15.68;7.18;;;;;;;;;;5183159;28;20265;-58
2023/11/26 00:22:28;;;;;;;16.33;6.78;;;;;;;;;;5183380;28;20046;-59
2023/11/26 00:24:59;;;;;;;18.42;7.10;;;;;;;;;;5182183;28;20042;-58
2023/11/26 00:27:30;;;;;;;18.20;8.10;;;;;;;;;;5183500;28;20530;-59
2023/11/26 00:30:02;;;;;;;14.82;7.60;;;;;;;;;;5166019;28;20053;-57
2023/11/26 00:32:33;;;;;;;21.80;8.10;;;;;;;;;;5181245;28;20045;-58
2023/11/26 00:35:05;;;;;;;21.42;6.90;;;;;;;;;;5182842;28;20061;-58
2023/11/26 00:37:36;;;;;;;18.95;7.22;;;;;;;;;;5182663;28;20045;-57
2023/11/26 00:40:09;;;;;;;14.48;6.88;;;;;;;;;;5182837;28;20507;-58
2023/11/26 00:42:40;;;;;;;;;;;;;;;;;;5182506;28;20088;-58
2023/11/26 00:45:11;;;;;;;14.23;6.50;;;;;;;;;;5182296;28;19925;-57
2023/11/26 00:47:42;;;;;;;13.93;6.30;;;;;;;;;;5165975;28;20050;-58
2023/11/26 00:50:14;;;;;;;16.35;5.97;;;;;;;;;;5181859;28;20033;-57
2023/11/26 00:52:45;;;;;;;15.82;6.63;;;;;;;;;;5182307;28;20044;-56
2023/11/26 00:55:17;;;;;;;18.33;6.40;;;;;;;;;;5166211;28;20045;-57
2023/11/26 00:57:49;;;;;;;15.73;6.25;;;;;;;;;;5165690;28;20042;-57
2023/11/26 01:00:20;;;;;;;13.88;5.93;;;;;;;;;;5164838;28;20077;-56
2023/11/26 01:02:51;;;;;;;14.30;5.47;;;;;;;;;;5183035;28;20038;-56
2023/11/26 01:05:23;;;;;;;14.75;6.00;;;;;;;;;;5166154;28;20395;-60
2023/11/26 01:07:54;;;;;;;15.57;5.97;;;;;;;;;;5165762;28;20045;-59
2023/11/26 01:10:25;;;;;;;15.70;5.93;;;;;;;;;;5182209;28;20041;-58
2023/11/26 01:12:56;;;;;;;12.15;5.53;;;;;;;;;;5181721;28;20037;-58
2023/11/26 01:15:27;;;;;;;13.38;5.30;;;;;;;;;;5165224;28;20175;-58
2023/11/26 01:17:58;;;;;;;13.10;4.95;;;;;;;;;;5182272;28;20465;-58
2023/11/26 01:20:30;;;;;;;18.52;5.10;;;;;;;;;;5181631;28;20042;-56
2023/11/26 01:23:01;;;;;;;15.93;5.47;;;;;;;;;;5181600;28;20153;-56
2023/11/26 01:25:32;;;;;;;14.13;5.03;;;;;;;;;;5165480;28;20049;-56
2023/11/26 01:28:03;;;;;;;12.25;5.13;;;;;;;;;;5181638;28;20038;-57
2023/11/26 01:30:34;;;;;;;14.80;5.75;;;;;;;;;;5181336;28;20034;-56
2023/11/26 01:33:06;;;;;;;14.90;4.80;;;;;;;;;;5165552;28;20052;-56
2023/11/26 01:35:37;;;;;;;15.00;4.87;;;;;;;;;;5165211;28;20041;-56
2023/11/26 01:38:08;;;;;;;12.93;4.90;;;;;;;;;;5181881;28;20340;-56
2023/11/26 01:40:39;;;;;;;9.15;4.20;;;;;;;;;;5181820;28;20037;-56
2023/11/26 01:43:10;;;;;;;11.90;5.15;;;;;;;;;;5181545;28;20135;-55
2023/11/26 01:45:41;;;;;;;13.60;4.85;;;;;;;;;;5181478;28;20536;-56
2023/11/26 01:48:14;;;;;;;12.65;4.82;;;;;;;;;;5165209;28;20034;-55
2023/11/26 01:50:45;;;;;;;12.43;3.97;;;;;;;;;;5181765;28;20038;-56
2023/11/26 01:53:16;;;;;;;14.65;4.55;;;;;;;;;;5181630;28;20045;-56
2023/11/26 01:55:47;;;;;;;14.32;5.28;;;;;;;;;;5181650;28;20061;-57
2023/11/26 01:58:18;;;;;;;10.23;4.53;;;;;;;;;;5164332;28;20038;-57
2023/11/26 02:00:51;;;;;;;15.88;4.28;;;;;;;;;;5181219;28;20445;-57
2023/11/26 02:03:22;;;;;;;10.65;4.47;;;;;;;;;;5178851;28;20038;-57
2023/11/26 02:05:54;;;;;;;9.80;4.30;;;;;;;;;;5181046;28;20038;-57
2023/11/26 02:08:26;;;;;;;14.18;4.35;;;;;;;;;;5181337;28;20138;-57
2023/11/26 02:10:57;;;;;;;13.82;4.85;;;;;;;;;;5181276;28;20187;-57
2023/11/26 02:13:29;;;;;;;17.75;5.20;;;;;;;;;;5181718;28;20053;-57
2023/11/26 02:16:00;;;;;;;11.73;4.45;;;;;;;;;;5182073;28;20049;-57
2023/11/26 02:18:31;;;;;;;10.60;4.70;;;;;;;;;;5165653;28;20084;-57
2023/11/26 02:21:02;;;;;;;15.60;5.28;;;;;;;;;;5181242;28;20038;-58
2023/11/26 02:23:35;;;;;;;10.77;3.90;;;;;;;;;;5181508;28;20046;-58
2023/11/26 02:26:09;;;;;;;12.00;4.22;;;;;;;;;;5181749;28;20115;-58
2023/11/26 02:28:43;;;;;;;12.95;4.60;;;;;;;;;;5180810;28;20477;-58
2023/11/26 02:31:14;;;;;;;13.98;4.93;;;;;;;;;;5181503;28;20104;-58
2023/11/26 02:33:46;;;;;;;13.30;5.27;;;;;;;;;;5165398;28;20046;-58
2023/11/26 02:36:17;;;;;;;12.35;4.63;;;;;;;;;;5181460;28;20337;-57
2023/11/26 02:38:48;;;;;;;16.83;5.32;;;;;;;;;;5181704;28;20042;-57
2023/11/26 02:41:19;;;;;;;15.32;4.68;;;;;;;;;;5165205;28;20049;-57
2023/11/26 02:43:50;;;;;;;9.90;4.88;;;;;;;;;;5181697;28;20365;-57
2023/11/26 02:46:21;;;;;;;12.07;5.03;;;;;;;;;;5181323;28;20118;-57
2023/11/26 02:48:53;;;;;;;10.38;4.88;;;;;;;;;;5183339;28;20426;-59
2023/11/26 02:51:24;;;;;;;11.77;5.28;;;;;;;;;;5185055;28;20115;-58
2023/11/26 02:53:55;;;;;;;11.77;4.85;;;;;;;;;;5185283;28;20074;-57
2023/11/26 02:56:26;;;;;;;18.35;4.93;;;;;;;;;;5185173;28;20463;-57
2023/11/26 02:58:57;;;;;;;14.23;5.88;;;;;;;;;;5183405;28;20099;-57
2023/11/26 03:01:29;;;;;;;12.00;4.97;;;;;;;;;;5184640;28;20046;-57
2023/11/26 03:04:00;;;;;;;16.05;5.15;;;;;;;;;;5184767;28;20077;-58
2023/11/26 03:06:32;;;;;;;11.82;4.22;;;;;;;;;;5168445;28;20214;-57
2023/11/26 03:09:37;;;;;;;13.65;4.70;;;;;;;;;;5168190;28;20073;-56
2023/11/26 03:14:53;;;;;;;13.48;4.43;;;;;;;;;;5184608;28;20054;-58
2023/11/26 03:17:25;;;;;;;15.25;5.43;;;;;;;;;;5184288;28;20046;-58
2023/11/26 03:19:56;;;;;;;;;;;;;;;;;;5168872;28;20404;-56
2023/11/26 03:22:27;;;;;;;19.83;4.80;;;;;;;;;;5184923;28;19929;-59
2023/11/26 03:24:58;;;;;;;16.65;4.95;;;;;;;;;;5184869;28;20125;-58
2023/11/26 03:27:30;;;;;;;14.35;5.13;;;;;;;;;;5184786;28;20042;-56
2023/11/26 03:30:02;;;;;;;14.23;5.70;;;;;;;;;;5184253;28;20445;-56
2023/11/26 03:32:36;;;;;;;14.73;5.30;;;;;;;;;;5184358;28;20045;-56
2023/11/26 03:35:07;;;;;;;13.13;4.50;;;;;;;;;;5184188;28;20569;-57
2023/11/26 03:37:38;;;;;;;15.87;5.33;;;;;;;;;;5184412;28;20065;-57
2023/11/26 03:40:10;;;;;;;12.17;5.00;;;;;;;;;;5168031;28;20294;-56
2023/11/26 03:42:42;;;;;;;12.18;4.68;;;;;;;;;;5167896;28;20404;-57
2023/11/26 03:45:13;;;;;;;13.38;5.40;;;;;;;;;;5183916;28;20476;-56
2023/11/26 03:47:45;;;;;;;14.57;4.40;;;;;;;;;;5184327;28;20159;-57
2023/11/26 03:50:16;;;;;;;12.98;5.20;;;;;;;;;;5167720;28;20042;-56
2023/11/26 03:52:49;;;;;;;10.88;4.63;;;;;;;;;;5167422;28;20042;-56
2023/11/26 03:55:20;;;;;;;10.30;4.97;;;;;;;;;;5184268;28;20394;-56
2023/11/26 03:57:51;;;;;;;15.05;4.97;;;;;;;;;;5184478;28;20053;-56
2023/11/26 04:00:22;;;;;;;11.45;4.95;;;;;;;;;;5183119;28;20124;-56
2023/11/26 04:02:54;;;;;;;16.05;5.25;;;;;;;;;;5167541;28;20041;-57
2023/11/26 04:05:25;;;;;;;11.70;5.38;;;;;;;;;;5183999;28;20690;-56
2023/11/26 04:07:57;;;;;;;13.05;5.65;;;;;;;;;;5184072;28;20420;-56
2023/11/26 04:10:28;;;;;;;17.13;5.55;;;;;;;;;;5168132;28;20467;-56
2023/11/26 04:12:59;;;;;;;16.88;5.30;;;;;;;;;;5183959;28;20047;-56
2023/11/26 04:15:31;;;;;;;14.65;5.18;;;;;;;;;;5183949;28;20459;-56
2023/11/26 04:18:03;;;;;;;15.40;5.57;;;;;;;;;;5183692;28;20049;-56
2023/11/26 04:20:34;;;;;;;13.48;5.90;;;;;;;;;;5167454;28;20046;-56
2023/11/26 04:23:05;;;;;;;16.13;6.00;;;;;;;;;;5183626;28;20323;-56
2023/11/26 04:25:36;;;;;;;10.93;4.95;;;;;;;;;;5183409;28;20050;-57
2023/11/26 04:28:07;;;;;;;16.45;5.50;;;;;;;;;;5182938;28;20033;-58
2023/11/26 04:30:38;;;;;;;15.75;6.03;;;;;;;;;;5182874;28;20038;-56
2023/11/26 04:33:09;;;;;;;16.10;4.93;;;;;;;;;;5183771;28;20037;-58
2023/11/26 04:35:41;;;;;;;16.20;5.55;;;;;;;;;;5167334;28;20437;-56
2023/11/26 04:38:12;;;;;;;10.48;5.47;;;;;;;;;;5166845;28;20050;-56
2023/11/26 04:40:44;;;;;;;16.52;5.25;;;;;;;;;;5183430;28;20441;-57
2023/11/26 04:43:15;;;;;;;18.45;5.68;;;;;;;;;;5182673;28;20049;-57
2023/11/26 04:45:46;;;;;;;22.08;6.15;;;;;;;;;;5182539;28;20042;-57
2023/11/26 04:48:17;;;;;;;17.27;5.18;;;;;;;;;;5182799;28;20038;-57
2023/11/26 04:50:50;;;;;;;14.07;4.93;;;;;;;;;;5179162;28;20416;-56
2023/11/26 04:53:21;;;;;;;13.93;5.30;;;;;;;;;;5178797;28;20049;-56
2023/11/26 04:55:53;;;;;;;17.13;5.53;;;;;;;;;;5167432;28;20092;-57
2023/11/26 04:58:24;;;;;;;12.55;4.57;;;;;;;;;;5181884;28;21128;-57
2023/11/26 05:00:55;;;;;;;11.57;5.22;;;;;;;;;;5182283;28;20046;-57
2023/11/26 05:03:26;;;;;;;13.52;5.40;;;;;;;;;;5182425;28;20504;-57
2023/11/26 05:05:57;;;;;;;12.82;5.10;;;;;;;;;;5182426;28;20219;-57
2023/11/26 05:08:28;;;;;;;12.50;5.13;;;;;;;;;;5182267;28;20053;-57
2023/11/26 05:11:01;;;;;;;15.95;3.90;;;;;;;;;;5182037;28;20404;-57
2023/11/26 05:13:33;;;;;;;16.48;4.57;;;;;;;;;;5165865;28;20041;-56
2023/11/26 05:16:04;;;;;;;15.33;4.63;;;;;;;;;;5182218;28;20046;-57
2023/11/26 05:18:35;;;;;;;15.48;4.85;;;;;;;;;;5182195;28;20271;-57
2023/11/26 05:21:06;;;;;;;12.52;4.03;;;;;;;;;;5182141;28;20046;-56
2023/11/26 05:23:37;;;;;;;11.35;4.22;;;;;;;;;;5181933;28;20098;-57
2023/11/26 05:26:09;;;;;;;12.05;4.43;;;;;;;;;;5165813;28;20496;-57
2023/11/26 05:28:40;;;;;;;11.00;4.10;;;;;;;;;;5181091;28;20141;-56
2023/11/26 05:31:11;;;;;;;8.85;3.80;;;;;;;;;;5165485;28;20038;-57
2023/11/26 05:33:42;;;;;;;11.63;3.47;;;;;;;;;;5181682;28;20045;-58
2023/11/26 05:36:13;;;;;;;9.68;3.45;;;;;;;;;;5182483;28;20112;-57
2023/11/26 05:38:45;;;;;;;10.82;4.28;;;;;;;;;;5182276;28;20488;-57
2023/11/26 05:41:18;;;;;;;12.70;4.10;;;;;;;;;;5182051;28;20042;-58
2023/11/26 05:43:49;;;;;;;13.98;4.32;;;;;;;;;;5182294;28;20136;-57
2023/11/26 05:46:21;;;;;;;13.40;4.15;;;;;;;;;;5166054;28;20126;-57
2023/11/26 05:48:52;;;;;;;15.10;4.38;;;;;;;;;;5181836;28;20053;-58
2023/11/26 05:51:24;;;;;;;10.07;4.32;;;;;;;;;;5181896;28;20349;-56
2023/11/26 05:53:55;;;;;;;14.40;4.03;;;;;;;;;;5182118;28;20116;-57
2023/11/26 05:56:26;;;;;;;13.23;3.75;;;;;;;;;;5182211;28;20337;-56
2023/11/26 05:58:57;;;;;;;13.07;4.18;;;;;;;;;;5164630;28;20041;-59
2023/11/26 06:01:28;;;;;;;11.63;3.75;;;;;;;;;;5181865;28;20034;-57
2023/11/26 06:03:59;;;;;;;15.20;5.22;;;;;;;;;;5181617;28;20042;-57
2023/11/26 06:06:31;;;;;;;10.75;4.38;;;;;;;;;;5165246;28;20124;-57
2023/11/26 06:09:02;;;;;;;13.63;4.43;;;;;;;;;;5182557;28;20489;-57
2023/11/26 06:11:33;;;;;;;12.95;4.20;;;;;;;;;;5165492;28;20042;-56
2023/11/26 06:14:04;;;;;;;12.52;4.53;;;;;;;;;;5165701;28;20481;-56
2023/11/26 06:16:35;;;;;;;9.63;3.90;;;;;;;;;;5165266;28;20037;-56
2023/11/26 06:19:06;;;;;;;13.85;4.13;;;;;;;;;;5181839;28;20041;-56
2023/11/26 06:21:38;;;;;;;12.18;5.03;;;;;;;;;;5182094;28;20491;-56
2023/11/26 06:24:09;;;;;;;13.77;4.47;;;;;;;;;;5184332;28;20046;-57
2023/11/26 06:26:40;;;;;;;10.77;3.87;;;;;;;;;;5185599;28;20041;-56
2023/11/26 06:29:12;;;;;;;11.98;4.50;;;;;;;;;;5184815;28;20038;-58
2023/11/26 06:31:44;;;;;;;;;;;;;;;;;;5185620;28;20046;-58
2023/11/26 06:34:15;;;;;;;16.55;4.57;;;;;;;;;;5169199;28;19975;-58
2023/11/26 06:36:46;;;;;;;10.75;3.67;;;;;;;;;;5169575;28;20493;-58
2023/11/26 06:39:19;;;;;;;11.45;4.55;;;;;;;;;;5185505;28;20461;-58
2023/11/26 06:41:50;;;;;;;10.95;3.97;;;;;;;;;;5169068;28;20125;-57
2023/11/26 06:44:21;;;;;;;13.70;4.30;;;;;;;;;;5169296;28;20464;-57
2023/11/26 06:46:55;;;;;;;11.88;4.15;;;;;;;;;;5185242;28;20046;-56
2023/11/26 06:49:27;;;;;;;11.20;3.95;;;;;;;;;;5168428;28;20225;-57
2023/11/26 06:51:58;;;;;;;8.98;4.45;;;;;;;;;;5184786;28;20041;-58
2023/11/26 06:54:30;;;;;;;10.88;3.92;;;;;;;;;;5185054;28;20393;-58
2023/11/26 06:57:01;;;;;;;11.38;4.15;;;;;;;;;;5184978;28;20049;-58
2023/11/26 06:59:32;;;;;;;14.25;4.25;;;;;;;;;;5184287;28;20543;-58
2023/11/26 07:02:03;;;;;;;12.25;4.47;;;;;;;;;;5184819;28;20232;-58
2023/11/26 07:04:34;;;;;;;13.35;4.38;;;;;;;;;;5168417;28;20128;-58
2023/11/26 07:07:06;;;;;;;12.32;4.43;;;;;;;;;;5184646;28;20077;-58
2023/11/26 07:09:37;;;;;;;15.82;4.43;;;;;;;;;;5168073;28;20042;-58
2023/11/26 07:12:08;;;;;;;12.15;4.22;;;;;;;;;;5168474;28;20072;-58
2023/11/26 07:14:39;;;;;;;13.32;4.57;;;;;;;;;;5184978;28;20519;-58
2023/11/26 07:17:13;;;;;;;8.32;3.85;;;;;;;;;;5183918;28;20044;-57
2023/11/26 07:19:44;;;;;;;12.55;4.38;;;;;;;;;;5184702;28;20037;-58
2023/11/26 07:22:16;;;;;;;11.15;3.95;;;;;;;;;;5184129;28;20048;-58
2023/11/26 07:24:47;;;;;;;14.63;4.20;;;;;;;;;;5184160;28;20050;-58
2023/11/26 07:27:18;;;;;;;10.90;4.43;;;;;;;;;;5184263;28;20042;-59
2023/11/26 07:29:49;;;;;;;11.05;3.83;;;;;;;;;;5183449;28;20092;-59
2023/11/26 07:32:20;;;;;;;11.18;4.00;;;;;;;;;;5183775;28;20033;-60
2023/11/26 07:34:52;;;;;;;8.48;3.60;;;;;;;;;;5184164;28;20045;-59
2023/11/26 07:37:26;;;;;;;10.95;4.50;;;;;;;;;;5183612;28;20049;-58
2023/11/26 07:39:57;;;;;;;11.00;3.65;;;;;;;;;;5183763;28;20505;-57
2023/11/26 07:42:28;;;;;;;15.80;3.92;;;;;;;;;;5182774;28;20038;-59
2023/11/26 07:45:00;;;;;;;13.20;4.28;;;;;;;;;;5181177;28;20042;-58
2023/11/26 07:47:32;;;;;;;8.63;3.50;;;;;;;;;;5184090;28;20040;-58
2023/11/26 07:50:03;;;;;;;9.48;3.22;;;;;;;;;;5184357;28;20482;-58
2023/11/26 07:52:35;;;;;;;13.38;4.13;;;;;;;;;;5184378;28;20360;-58
2023/11/26 07:55:07;;;;;;;10.63;4.20;;;;;;;;;;5183819;28;20127;-58
2023/11/26 07:57:38;;;;;;;13.18;3.60;;;;;;;;;;5183352;28;20045;-57
2023/11/26 08:00:09;;;;;;;14.57;4.15;;;;;;;;;;5182347;28;20046;-58
2023/11/26 08:02:40;;;;;;;10.50;4.22;;;;;;;;;;5182853;28;20042;-57
2023/11/26 08:05:13;;;;;;;13.15;3.53;;;;;;;;;;5182781;28;20133;-56
2023/11/26 08:07:45;;;;;;;14.93;4.93;;;;;;;;;;5183045;28;20050;-56
2023/11/26 08:10:20;;;;;;;11.88;3.35;;;;;;;;;;5183164;28;20045;-57
2023/11/26 08:12:52;;;;;;;11.65;3.63;;;;;;;;;;5183128;28;20133;-57
2023/11/26 08:15:25;;;;;;;12.70;4.25;;;;;;;;;;5166136;28;20037;-57
2023/11/26 08:17:56;;;;;;;11.32;3.85;;;;;;;;;;5166986;28;20762;-60
2023/11/26 08:20:28;;;;;;;10.00;3.83;;;;;;;;;;5183053;28;20129;-62
2023/11/26 08:23:01;;;;;;;9.17;3.57;;;;;;;;;;5183002;28;20631;-60
2023/11/26 08:25:34;;;;;;;16.63;4.53;;;;;;;;;;5166221;28;20374;-61
2023/11/26 08:28:08;;;;;;;16.10;3.53;;;;;;;;;;5165755;28;20044;-59
2023/11/26 08:30:41;;;;;;;12.02;4.22;;;;;;;;;;5182694;28;20392;-61
2023/11/26 08:33:12;;;;;;;12.75;4.22;;;;;;;;;;5182735;28;20567;-59
2023/11/26 08:35:43;;;;;;;14.13;4.90;;;;;;;;;;5183036;28;20120;-61
2023/11/26 08:38:16;;;;;;;8.77;3.55;;;;;;;;;;5183050;28;20459;-60
2023/11/26 08:40:47;;;;;;;9.85;3.80;;;;;;;;;;5182758;28;20133;-60
2023/11/26 08:43:19;;;;;;;14.63;4.20;;;;;;;;;;5182789;28;20048;-61
2023/11/26 08:45:51;;;;;;;11.00;4.57;;;;;;;;;;5181974;28;20042;-60
2023/11/26 08:48:23;;;;;;;16.60;4.40;;;;;;;;;;5183355;28;20428;-60
2023/11/26 08:50:54;;;;;;;8.82;3.42;;;;;;;;;;5182128;28;20041;-61
2023/11/26 08:53:25;;;;;;;14.13;3.97;;;;;;;;;;5182824;28;20026;-58
2023/11/26 08:55:56;;;;;;;12.55;4.28;;;;;;;;;;5182502;28;20099;-57
2023/11/26 08:58:28;;;;;;;10.77;4.25;;;;;;;;;;5181966;28;20473;-56
2023/11/26 09:00:59;;;;;;;9.75;4.03;;;;;;;;;;5182676;28;20057;-57
2023/11/26 09:03:30;;;;;;;14.15;3.63;;;;;;;;;;5166136;28;20132;-59
2023/11/26 09:06:01;;;;;;;15.43;4.43;;;;;;;;;;5166225;28;20407;-57
2023/11/26 09:08:32;;;;;;;14.80;4.47;;;;;;;;;;5182172;28;20046;-58
2023/11/26 09:11:03;;;;;;;13.02;4.53;;;;;;;;;;5166028;28;20056;-57
2023/11/26 09:13:35;;;;;;;11.38;4.30;;;;;;;;;;5165844;28;20121;-57
2023/11/26 09:16:06;;;;;;;10.23;4.43;;;;;;;;;;5165664;28;20430;-57
2023/11/26 09:18:37;;;;;;;10.45;4.13;;;;;;;;;;5179222;28;20049;-59
2023/11/26 09:21:10;;;;;;;12.30;4.85;;;;;;;;;;5163348;28;20050;-60
2023/11/26 09:23:45;;;;;;;11.00;4.10;;;;;;;;;;5165024;28;20054;-59
2023/11/26 09:26:16;;;;;;;7.65;4.28;;;;;;;;;;5181690;28;20145;-58
2023/11/26 09:28:47;;;;;;;11.80;4.35;;;;;;;;;;5162804;28;20057;-58
2023/11/26 09:31:18;;;;;;;11.43;4.63;;;;;;;;;;5197578;28;20033;-59
2023/11/26 09:33:49;;;;;;;11.63;4.30;;;;;;;;;;5181711;28;20038;-59
2023/11/26 09:36:21;;;;;;;13.50;4.47;;;;;;;;;;5181573;28;20658;-59
2023/11/26 09:38:52;;;;;;;10.05;4.45;;;;;;;;;;5197702;28;20045;-59
2023/11/26 09:41:24;;;;;;;12.02;5.07;;;;;;;;;;5192484;28;20142;-57
2023/11/26 09:43:55;;;;;;;11.93;4.90;;;;;;;;;;5180988;28;20092;-58
2023/11/26 09:46:28;;;;;;;8.75;4.30;;;;;;;;;;5181628;28;20049;-59
2023/11/26 09:48:59;;;;;;;8.63;4.43;;;;;;;;;;5181466;28;20536;-61
2023/11/26 09:51:38;;;;;;;16.70;4.93;;;;;;;;;;5180521;28;20074;-60
2023/11/26 09:54:10;;;;;;;15.35;5.00;;;;;;;;;;5181708;28;20054;-57
2023/11/26 09:56:41;;;;;;;11.27;4.65;;;;;;;;;;5178614;28;20034;-57
2023/11/26 09:59:25;;;;;;;13.07;5.00;;;;;;;;;;5165634;28;20038;-56
2023/11/26 10:01:58;;;;;;;13.85;5.05;;;;;;;;;;5174980;28;20040;-58
2023/11/26 10:04:49;;;;;;;11.10;4.05;;;;;;;;;;5184189;28;20045;-57
2023/11/26 10:07:32;;;;;;;10.73;4.35;;;;;;;;;;5185129;28;20045;-55
2023/11/26 10:10:10;;;;;;;11.98;4.40;;;;;;;;;;5181702;28;20042;-59
2023/11/26 10:12:54;;;;;;;9.68;4.20;;;;;;;;;;5169377;28;20038;-59
2023/11/26 10:15:31;;;;;;;11.57;4.00;;;;;;;;;;5185775;28;20484;-58
2023/11/26 10:18:06;;;;;;;10.77;4.13;;;;;;;;;;5185773;28;20057;-58
2023/11/26 10:20:39;;;;;;;10.80;4.35;;;;;;;;;;5202398;28;20038;-59
2023/11/26 10:23:13;;;;;;;11.60;4.20;;;;;;;;;;5201430;28;20038;-59
2023/11/26 10:25:46;;;;;;;11.05;3.92;;;;;;;;;;5185759;28;20064;-60
2023/11/26 10:28:18;;;;;;;9.15;4.15;;;;;;;;;;5185205;28;20409;-60
2023/11/26 10:30:49;;;;;;;11.02;4.22;;;;;;;;;;5189467;28;20066;-58
2023/11/26 10:33:21;;;;;;;10.63;4.13;;;;;;;;;;5185290;28;20034;-60
2023/11/26 10:35:53;;;;;;;9.13;3.72;;;;;;;;;;5185539;28;20057;-60
2023/11/26 10:38:27;;;;;;;9.05;3.45;;;;;;;;;;5185048;28;20133;-57
2023/11/26 10:40:59;;;;;;;13.50;3.38;;;;;;;;;;5185919;28;20049;-56
2023/11/26 10:43:31;;;;;;;9.05;3.97;;;;;;;;;;5185238;28;20408;-57
2023/11/26 10:46:03;;;;;;;12.23;4.20;;;;;;;;;;5178930;28;20038;-59
2023/11/26 10:48:35;;;;;;;11.40;3.85;;;;;;;;;;5201732;28;20141;-57
2023/11/26 10:51:10;;;;;;;10.57;4.20;;;;;;;;;;5183540;28;20053;-57
2023/11/26 10:54:04;;;;;;;11.43;4.35;;;;;;;;;;5169180;28;20099;-57
2023/11/26 10:56:39;;;;;;;13.02;4.32;;;;;;;;;;5184194;28;20037;-57
2023/11/26 10:59:19;;;;;;;9.98;4.20;;;;;;;;;;5184187;28;20049;-58
2023/11/26 11:01:50;;;;;;;7.75;4.00;;;;;;;;;;5182788;28;20494;-58
2023/11/26 11:04:22;;;;;;;10.43;3.70;;;;;;;;;;5181237;28;20511;-58
2023/11/26 11:06:53;;;;;;;7.82;3.80;;;;;;;;;;5165470;28;20038;-58
2023/11/26 11:09:33;;;;;;;10.07;3.65;;;;;;;;;;5195370;28;20171;-58
2023/11/26 11:12:11;;;;;;;7.53;3.83;;;;;;;;;;5183260;28;20034;-57
2023/11/26 11:14:43;;;;;;;12.93;4.68;;;;;;;;;;5167987;28;20069;-57
2023/11/26 11:17:28;;;;;;;10.80;3.45;;;;;;;;;;5184173;28;20116;-57
2023/11/26 11:20:01;;;;;;;9.50;3.40;;;;;;;;;;5183774;28;20045;-58
2023/11/26 11:22:33;;;;;;;10.85;3.80;;;;;;;;;;5183635;28;20100;-57
2023/11/26 11:25:05;;;;;;;11.70;4.43;;;;;;;;;;5199337;28;20084;-57
2023/11/26 11:27:58;;;;;;;10.18;3.80;;;;;;;;;;5200010;28;20393;-58
2023/11/26 11:30:32;;;;;;;9.90;4.68;;;;;;;;;;5182140;28;20112;-58
2023/11/26 11:33:04;;;;;;;10.65;3.50;;;;;;;;;;5182470;28;20429;-59
2023/11/26 11:35:36;;;;;;;9.20;3.75;;;;;;;;;;5183619;28;20572;-59
2023/11/26 11:38:11;;;;;;;12.77;3.80;;;;;;;;;;5183226;28;20132;-59
2023/11/26 11:41:18;;;;;;;10.55;3.78;;;;;;;;;;5183334;28;20422;-58
2023/11/26 11:44:09;;;;;;;9.80;3.50;;;;;;;;;;5162023;28;20109;-58
2023/11/26 11:46:42;;;;;;;10.27;3.97;;;;;;;;;;5182312;28;20393;-58
2023/11/26 11:49:13;;;;;;;11.10;3.58;;;;;;;;;;5182905;28;20038;-58
2023/11/26 11:51:44;;;;;;;12.63;3.90;;;;;;;;;;5183257;28;20042;-59
2023/11/26 11:54:16;;;;;;;12.93;4.25;;;;;;;;;;5199682;28;20092;-59
2023/11/26 11:56:47;;;;;;;10.23;4.00;;;;;;;;;;5183607;28;20403;-57
2023/11/26 11:59:19;;;;;;;12.50;4.00;;;;;;;;;;5182282;28;20279;-58
2023/11/26 12:01:50;;;;;;;12.80;4.15;;;;;;;;;;5200183;28;20069;-58
2023/11/26 12:04:36;;;;;;;10.13;3.72;;;;;;;;;;5182991;28;20037;-58
2023/11/26 12:07:08;;;;;;;10.27;4.05;;;;;;;;;;5176758;28;20089;-57
2023/11/26 12:09:40;;;;;;;11.13;4.00;;;;;;;;;;5199862;28;20099;-58
2023/11/26 12:12:11;;;;;;;10.73;3.72;;;;;;;;;;5183245;28;20096;-58
2023/11/26 12:14:42;;;;;;;16.20;4.50;;;;;;;;;;5183585;28;20044;-58
2023/11/26 12:17:15;;;;;;;11.23;4.03;;;;;;;;;;5183313;28;20098;-55
2023/11/26 12:19:48;;;;;;;12.88;3.90;;;;;;;;;;5199596;28;20053;-54
2023/11/26 12:22:20;;;;;;;12.68;4.03;;;;;;;;;;5182354;28;20038;-55
2023/11/26 12:24:51;;;;;;;13.52;3.40;;;;;;;;;;5182814;28;20408;-59
2023/11/26 12:27:25;;;;;;;11.87;4.17;;;;;;;;;;5182285;28;20038;-57
2023/11/26 12:29:56;;;;;;;12.93;4.28;;;;;;;;;;5182732;28;20543;-57
2023/11/26 12:32:28;;;;;;;10.83;4.73;;;;;;;;;;5182312;28;20484;-58
2023/11/26 12:35:00;;;;;;;11.40;4.95;;;;;;;;;;5182723;28;20044;-58
2023/11/26 12:37:32;;;;;;;10.27;4.68;;;;;;;;;;5183293;28;20445;-56
2023/11/26 12:40:04;;;;;;;11.73;4.60;;;;;;;;;;5182745;28;20036;-56
2023/11/26 12:42:36;;;;;;;11.00;4.03;;;;;;;;;;5183525;28;20034;-57
2023/11/26 12:45:10;;;;;;;8.43;4.18;;;;;;;;;;5198157;28;20092;-56
2023/11/26 12:47:48;;;;;;;18.10;5.88;;;;;;;;;;5166291;28;20049;-55
2023/11/26 12:50:20;;;;;;;12.30;4.70;;;;;;;;;;5180808;28;20034;-56
2023/11/26 12:52:52;;;;;;;11.73;5.30;;;;;;;;;;5176365;28;20060;-58
2023/11/26 12:55:23;;;;;;;10.25;5.15;;;;;;;;;;5178247;28;20133;-57
2023/11/26 12:57:54;;;;;;;15.43;5.27;;;;;;;;;;5197940;28;20038;-58
2023/11/26 13:00:37;;;;;;;12.97;5.40;;;;;;;;;;5182918;28;20042;-59
2023/11/26 13:03:09;;;;;;;11.70;5.25;;;;;;;;;;5163045;28;20049;-58
2023/11/26 13:05:40;;;;;;;17.85;5.57;;;;;;;;;;5182325;28;20107;-58
2023/11/26 13:08:20;;;;;;;12.88;6.18;;;;;;;;;;5183732;28;20092;-58
2023/11/26 13:10:52;;;;;;;14.77;5.72;;;;;;;;;;5181702;28;20110;-59
2023/11/26 13:13:26;;;;;;;13.07;6.82;;;;;;;;;;5181687;28;20053;-57
2023/11/26 13:16:02;;;;;;;18.40;6.40;;;;;;;;;;5182294;28;20055;-58
2023/11/26 13:18:33;;;;;;;14.63;6.80;;;;;;;;;;5182214;28;20037;-58
2023/11/26 13:21:06;;;;;;;18.95;6.88;;;;;;;;;;5182381;28;20037;-58
2023/11/26 13:23:37;;;;;;;13.27;6.05;;;;;;;;;;5198265;28;20044;-58
2023/11/26 13:26:10;;;;;;;17.50;7.32;;;;;;;;;;5182212;28;20121;-57
2023/11/26 13:28:41;;;;;;;15.80;6.03;;;;;;;;;;5181177;28;20046;-57
2023/11/26 13:31:13;;;;;;;20.45;7.30;;;;;;;;;;5182299;28;20042;-57
2023/11/26 13:33:48;;;;;;;13.90;5.57;;;;;;;;;;5181593;28;20042;-58
2023/11/26 13:36:19;;;;;;;12.68;6.15;;;;;;;;;;5181900;28;20337;-58
2023/11/26 13:38:50;;;;;;;15.68;6.20;;;;;;;;;;5182459;28;20056;-58
2023/11/26 13:41:22;;;;;;;11.55;6.18;;;;;;;;;;5181929;28;20048;-58
2023/11/26 13:43:55;;;;;;;16.40;6.28;;;;;;;;;;5182653;28;20057;-57
2023/11/26 13:46:26;;;;;;;15.35;5.93;;;;;;;;;;5182181;28;20129;-59
2023/11/26 13:48:59;;;;;;;18.70;6.10;;;;;;;;;;5182677;28;20042;-59
2023/11/26 13:51:31;;;;;;;12.23;5.72;;;;;;;;;;5182398;28;20038;-60
2023/11/26 13:54:02;;;;;;;13.52;6.13;;;;;;;;;;5182402;28;20092;-60
2023/11/26 13:56:33;;;;;;;14.20;5.57;;;;;;;;;;5181917;28;20041;-58
2023/11/26 13:59:04;;;;;;;15.80;6.40;;;;;;;;;;5180909;28;20069;-60
2023/11/26 14:01:36;;;;;;;20.73;6.77;;;;;;;;;;5181562;28;20366;-60
2023/11/26 14:04:07;;;;;;;20.20;6.63;;;;;;;;;;5197908;28;20073;-60
2023/11/26 14:06:38;;;;;;;12.87;6.23;;;;;;;;;;5181103;28;20053;-61
2023/11/26 14:09:11;;;;;;;13.65;5.85;;;;;;;;;;5181472;28;20064;-61
2023/11/26 14:11:42;;;;;;;12.43;5.75;;;;;;;;;;5197841;28;20437;-59
2023/11/26 14:14:14;;;;;;;16.10;6.67;;;;;;;;;;5180895;28;20053;-58
2023/11/26 14:16:45;;;;;;;20.83;7.67;;;;;;;;;;5177835;28;20429;-59
2023/11/26 14:19:16;;;;;;;15.73;7.57;;;;;;;;;;5197383;28;20108;-59
2023/11/26 14:21:47;;;;;;;14.68;7.20;;;;;;;;;;5165001;28;20088;-60
2023/11/26 14:24:18;;;;;;;14.97;7.30;;;;;;;;;;5181290;28;20037;-59
2023/11/26 14:26:49;;;;;;;11.20;6.88;;;;;;;;;;5180782;28;20045;-59
2023/11/26 14:29:21;;;;;;;16.00;8.27;;;;;;;;;;5196894;28;20045;-55
2023/11/26 14:31:52;;;;;;;17.58;8.40;;;;;;;;;;5182763;28;20088;-56
2023/11/26 14:34:23;;;;;;;18.27;7.22;;;;;;;;;;5181423;28;20481;-57
2023/11/26 14:36:54;;;;;;;16.42;8.18;;;;;;;;;;5180846;28;20132;-56
2023/11/26 14:39:25;;;;;;;17.83;7.67;;;;;;;;;;5180873;28;20045;-56
2023/11/26 14:41:56;;;;;;;15.00;7.00;;;;;;;;;;5180183;28;20090;-56
2023/11/26 14:44:28;;;;;;;15.52;6.70;;;;;;;;;;5182252;28;20355;-59
2023/11/26 14:46:59;;;;;;;22.38;8.30;;;;;;;;;;5184640;28;20107;-57
2023/11/26 14:49:30;;;;;;;19.75;7.78;;;;;;;;;;5184112;28;20046;-59
2023/11/26 14:52:01;;;;;;;18.97;7.17;;;;;;;;;;5200203;28;20113;-56
2023/11/26 14:54:32;;;;;;;20.23;7.75;;;;;;;;;;5184334;28;20042;-56
2023/11/26 14:57:04;;;;;;;20.20;8.27;;;;;;;;;;5184859;28;20049;-57
2023/11/26 14:59:35;;;;;;;19.97;7.77;;;;;;;;;;5183951;28;20550;-56
2023/11/26 15:02:09;;;;;;;19.30;7.15;;;;;;;;;;5186893;28;20279;-57
2023/11/26 15:04:43;;;;;;;18.02;7.45;;;;;;;;;;5167565;28;20045;-56